Details for Transavia (Netherlands) at EDDM




Go Back


Latest METAR
Local Time

EDDM 232350Z 06012KT 9999 FEW022 OVC025 M02/M07 Q1016 NOSIG

24/02/2018, 01:09:34

Description
Results
Transavia (Netherlands) Logo
Number of Pilots based at EDDM
0 Pilots Based here
Number of Transavia (Netherlands) Flights Departed from EDDM
2 Flights Departed
Number of Transavia (Netherlands) Flights Arrived at EDDM
3 Flights Arrived
Number of Transavia (Netherlands) Schedules Departing from EDDM
49 Schedules
Number of Transavia (Netherlands) Schedules Arriving at EDDM
49 Schedules
Number of Transavia (Netherlands) Schedules Departing from EDDM availible today
9 Schedules Today
Number of Transavia (Netherlands) Schedules Arriving at EDDM availible today
9 Schedules Today
Average Landing Rate at EDDM
-180 fpm
Transavia (Netherlands) Average Landing Rate at EDDM
-109 fpm
Total Fuel Purchased at EDDM by Transavia (Netherlands)
7,116.41 kgs / 15,688.84 lbs

Pilots Based at EDDM


Pilot ID
Pilot Name
Pilot Rank
No. of Flights
No. of Flying Hours
There are no pilots assigned to this hub!   Will you be the first?
Content